Time;durP1;ratioP1;P1;durP2;ratioP2;P2;SDS_P1;SDS_P2;PMS_P1;PMS_P2;Temp;Humidity;BMP_temperature;BMP_pressure;BME280_temperature;BME280_humidity;BME280_pressure;Samples;Min_cycle;Max_cycle;Signal;HPM_P1;HPM_P2
2022/11/12 00:04:41;;;;;;;67.43;44.83;;;;;;;;;;10030013;28;20056;-72
2022/11/12 00:10:01;;;;;;;73.20;46.33;;;;;;;;;;10020680;28;20367;-70
2022/11/12 00:15:17;;;;;;;71.30;43.38;;;;;;;;;;10031098;28;20064;-70
2022/11/12 00:20:28;;;;;;;68.65;46.03;;;;;;;;;;10029939;28;20053;-69
2022/11/12 00:25:41;;;;;;;75.95;45.92;;;;;;;;;;10031924;28;20104;-69
2022/11/12 00:30:54;;;;;;;76.32;47.60;;;;;;;;;;10031867;28;20077;-69
2022/11/12 00:36:08;;;;;;;69.05;41.42;;;;;;;;;;10030819;28;20044;-68
2022/11/12 00:41:23;;;;;;;56.45;36.83;;;;;;;;;;10031844;28;20136;-69
2022/11/12 00:46:36;;;;;;;62.15;39.67;;;;;;;;;;10029533;28;20075;-68
2022/11/12 00:51:48;;;;;;;60.67;39.25;;;;;;;;;;10031300;28;20135;-69
2022/11/12 00:57:01;;;;;;;58.95;38.90;;;;;;;;;;10030576;28;20065;-69
2022/11/12 01:02:13;;;;;;;54.28;37.70;;;;;;;;;;10021405;28;20080;-70
2022/11/12 01:07:25;;;;;;;63.22;38.63;;;;;;;;;;10030976;28;20123;-69
2022/11/12 01:12:38;;;;;;;62.78;40.40;;;;;;;;;;10029956;28;20072;-69
2022/11/12 01:17:50;;;;;;;63.45;40.90;;;;;;;;;;10028575;28;20068;-71
2022/11/12 01:23:04;;;;;;;61.15;40.50;;;;;;;;;;10026620;28;20515;-71
2022/11/12 01:28:14;;;;;;;64.85;40.95;;;;;;;;;;10031468;28;20065;-71
2022/11/12 01:33:26;;;;;;;58.78;40.17;;;;;;;;;;10031738;28;20049;-70
2022/11/12 01:38:40;;;;;;;50.08;35.03;;;;;;;;;;10032520;28;20514;-69
2022/11/12 01:44:15;;;;;;;54.03;35.60;;;;;;;;;;10028764;28;20151;-69
2022/11/12 01:49:41;;;;;;;60.53;39.92;;;;;;;;;;10015905;28;20060;-69
2022/11/12 01:55:21;;;;;;;57.03;36.65;;;;;;;;;;10008361;28;20112;-69
2022/11/12 02:00:33;;;;;;;64.97;39.38;;;;;;;;;;10014831;28;20507;-69
2022/11/12 02:05:48;;;;;;;62.05;39.67;;;;;;;;;;10017614;28;20049;-69
2022/11/12 02:11:13;;;;;;;63.92;39.88;;;;;;;;;;10008873;28;20100;-69
2022/11/12 02:16:37;;;;;;;67.65;41.78;;;;;;;;;;10026529;28;20093;-69
2022/11/12 02:21:50;;;;;;;65.65;39.10;;;;;;;;;;10027122;28;20136;-69
2022/11/12 02:27:03;;;;;;;66.03;39.35;;;;;;;;;;10019205;28;20076;-69
2022/11/12 02:32:14;;;;;;;57.97;37.55;;;;;;;;;;10027435;28;20080;-69
2022/11/12 02:37:27;;;;;;;51.83;30.45;;;;;;;;;;10028870;28;20112;-69
2022/11/12 02:42:39;;;;;;;49.88;31.80;;;;;;;;;;10027061;28;20567;-70
2022/11/12 02:47:51;;;;;;;53.15;32.33;;;;;;;;;;10027291;28;20068;-69
2022/11/12 02:53:04;;;;;;;53.95;32.47;;;;;;;;;;10017234;28;20045;-70
2022/11/12 02:58:15;;;;;;;48.67;32.53;;;;;;;;;;10025918;28;20413;-70
2022/11/12 03:03:27;;;;;;;46.72;29.75;;;;;;;;;;10031816;28;20056;-69
2022/11/12 03:08:38;;;;;;;45.08;26.38;;;;;;;;;;10034584;28;20573;-69
2022/11/12 03:13:49;;;;;;;47.47;28.38;;;;;;;;;;10031993;28;20173;-69
2022/11/12 03:19:01;;;;;;;46.88;31.23;;;;;;;;;;10023217;28;20072;-69
2022/11/12 03:24:14;;;;;;;44.17;29.33;;;;;;;;;;10034891;28;20156;-68
2022/11/12 03:29:26;;;;;;;41.97;26.27;;;;;;;;;;10034625;28;20555;-69
2022/11/12 03:34:38;;;;;;;40.75;26.42;;;;;;;;;;10034273;28;20137;-69
2022/11/12 03:39:50;;;;;;;40.35;25.67;;;;;;;;;;10035566;28;20519;-69
2022/11/12 03:45:02;;;;;;;37.15;25.08;;;;;;;;;;10034312;28;20563;-70
2022/11/12 03:50:16;;;;;;;41.53;29.08;;;;;;;;;;10033314;28;20116;-70
2022/11/12 03:55:28;;;;;;;41.22;26.80;;;;;;;;;;10033934;28;20092;-70
2022/11/12 04:00:40;;;;;;;41.05;26.50;;;;;;;;;;10033906;28;20515;-70
2022/11/12 04:11:22;;;;;;;38.58;26.10;;;;;;;;;;10031675;28;20113;-70
2022/11/12 04:22:08;;;;;;;40.53;25.40;;;;;;;;;;10031863;28;20152;-71
2022/11/12 04:27:30;;;;;;;39.42;24.83;;;;;;;;;;10032022;28;20103;-71
2022/11/12 04:32:53;;;;;;;34.13;22.25;;;;;;;;;;10031605;28;20172;-70
2022/11/12 04:38:04;;;;;;;36.03;23.80;;;;;;;;;;10028201;28;20088;-71
2022/11/12 04:48:48;;;;;;;31.05;21.40;;;;;;;;;;10027395;28;20061;-71
2022/11/12 04:54:00;;;;;;;34.72;22.30;;;;;;;;;;10030971;28;20523;-70
2022/11/12 04:59:12;;;;;;;34.40;22.42;;;;;;;;;;10030924;28;20515;-71
2022/11/12 05:04:26;;;;;;;32.20;21.30;;;;;;;;;;10030509;28;20192;-70
2022/11/12 05:09:39;;;;;;;30.20;20.67;;;;;;;;;;10015200;28;20177;-69
2022/11/12 05:14:52;;;;;;;31.65;20.45;;;;;;;;;;10019568;28;20434;-70
2022/11/12 05:20:03;;;;;;;29.05;20.52;;;;;;;;;;10031062;28;20050;-69
2022/11/12 05:25:15;;;;;;;30.80;19.65;;;;;;;;;;10029586;28;20064;-69
2022/11/12 05:30:27;;;;;;;28.65;20.00;;;;;;;;;;10029067;28;20072;-69
2022/11/12 05:35:39;;;;;;;45.47;21.90;;;;;;;;;;10029119;28;20168;-69
2022/11/12 05:40:51;;;;;;;28.13;19.13;;;;;;;;;;10029115;28;20127;-69
2022/11/12 05:46:03;;;;;;;28.45;19.55;;;;;;;;;;10024267;28;20147;-68
2022/11/12 05:51:15;;;;;;;29.90;18.02;;;;;;;;;;10038193;28;20069;-69
2022/11/12 05:56:27;;;;;;;26.33;17.88;;;;;;;;;;10030924;28;20064;-69
2022/11/12 06:01:42;;;;;;;25.75;17.58;;;;;;;;;;10028050;28;20557;-70
2022/11/12 06:06:55;;;;;;;26.35;16.10;;;;;;;;;;10024691;28;20212;-69
2022/11/12 06:12:07;;;;;;;26.17;17.15;;;;;;;;;;10026079;28;20627;-70
2022/11/12 06:17:20;;;;;;;24.00;17.23;;;;;;;;;;10025830;28;20173;-70
2022/11/12 06:22:31;;;;;;;27.00;17.80;;;;;;;;;;10026206;28;20049;-69
2022/11/12 06:27:43;;;;;;;25.13;16.40;;;;;;;;;;10025636;28;20068;-69
2022/11/12 06:32:55;;;;;;;20.58;13.30;;;;;;;;;;10024088;28;20127;-70
2022/11/12 06:38:08;;;;;;;18.65;14.05;;;;;;;;;;10025359;28;20075;-69
2022/11/12 06:43:24;;;;;;;21.20;13.23;;;;;;;;;;10025189;28;20068;-69
2022/11/12 06:48:36;;;;;;;21.42;14.13;;;;;;;;;;10025522;28;20077;-72
2022/11/12 06:53:48;;;;;;;21.02;14.13;;;;;;;;;;10025610;28;20153;-72
2022/11/12 06:59:00;;;;;;;25.52;15.15;;;;;;;;;;10023674;28;20124;-73
2022/11/12 07:04:12;;;;;;;22.67;14.70;;;;;;;;;;10023384;28;20069;-71
2022/11/12 07:09:23;;;;;;;22.35;14.82;;;;;;;;;;10025745;28;20052;-74
2022/11/12 07:14:35;;;;;;;29.50;14.43;;;;;;;;;;10025761;28;20092;-67
2022/11/12 07:19:47;;;;;;;22.05;13.55;;;;;;;;;;10026471;28;20096;-76
2022/11/12 07:24:59;;;;;;;21.38;12.75;;;;;;;;;;10025890;28;20412;-80
2022/11/12 07:30:13;;;;;;;18.63;13.13;;;;;;;;;;10019983;28;20116;-79
2022/11/12 07:35:25;;;;;;;22.08;14.82;;;;;;;;;;10026241;28;20141;-78
2022/11/12 07:40:37;;;;;;;25.20;18.83;;;;;;;;;;10021111;28;20057;-81
2022/11/12 07:45:49;;;;;;;21.75;15.35;;;;;;;;;;10028501;28;20409;-74
2022/11/12 07:51:06;;;;;;;17.83;11.65;;;;;;;;;;10027966;28;20053;-73
2022/11/12 07:56:23;;;;;;;16.60;12.00;;;;;;;;;;10032818;28;20068;-72
2022/11/12 08:01:40;;;;;;;14.13;11.10;;;;;;;;;;10031630;28;20052;-70
2022/11/12 08:06:52;;;;;;;13.90;10.48;;;;;;;;;;10030860;28;20133;-69
2022/11/12 08:12:06;;;;;;;14.65;8.98;;;;;;;;;;10030493;28;20092;-67
2022/11/12 08:17:19;;;;;;;11.93;9.32;;;;;;;;;;10029032;28;20056;-67
2022/11/12 08:22:32;;;;;;;12.32;8.57;;;;;;;;;;10027032;28;20061;-68
2022/11/12 08:27:44;;;;;;;13.40;9.80;;;;;;;;;;10031267;28;20455;-69
2022/11/12 08:32:59;;;;;;;11.38;8.13;;;;;;;;;;10030202;28;20049;-70
2022/11/12 08:38:13;;;;;;;33.30;9.32;;;;;;;;;;10035588;28;20128;-69
2022/11/12 08:43:25;;;;;;;12.82;9.65;;;;;;;;;;10038534;28;20160;-68
2022/11/12 08:48:38;;;;;;;14.43;8.95;;;;;;;;;;10041824;28;20127;-68
2022/11/12 08:53:51;;;;;;;12.70;8.75;;;;;;;;;;10030247;28;20056;-68
2022/11/12 08:59:03;;;;;;;13.10;8.50;;;;;;;;;;10030113;28;20068;-67
2022/11/12 09:04:17;;;;;;;15.18;10.48;;;;;;;;;;10027666;28;20057;-68
2022/11/12 09:09:29;;;;;;;13.90;10.32;;;;;;;;;;10029502;28;20104;-71
2022/11/12 09:14:42;;;;;;;13.45;9.20;;;;;;;;;;10029953;28;20152;-71
2022/11/12 09:19:53;;;;;;;15.32;10.63;;;;;;;;;;10028332;28;20057;-71
2022/11/12 09:25:07;;;;;;;17.13;11.93;;;;;;;;;;10024869;28;20139;-70
2022/11/12 09:30:19;;;;;;;11.00;9.40;;;;;;;;;;10018864;28;20152;-70
2022/11/12 09:35:32;;;;;;;13.98;10.43;;;;;;;;;;10027480;28;20531;-70
2022/11/12 09:40:49;;;;;;;12.70;10.18;;;;;;;;;;10028928;28;20156;-70
2022/11/12 09:46:24;;;;;;;12.00;10.05;;;;;;;;;;10018177;28;20416;-71
2022/11/12 09:51:56;;;;;;;15.93;11.80;;;;;;;;;;10028830;28;20104;-70
2022/11/12 09:57:12;;;;;;;16.85;12.68;;;;;;;;;;10028580;28;20108;-70
2022/11/12 10:02:23;;;;;;;12.93;11.02;;;;;;;;;;10029055;28;20058;-71
2022/11/12 10:08:17;;;;;;;14.43;10.65;;;;;;;;;;10028056;28;20112;-70
2022/11/12 10:13:45;;;;;;;14.90;10.50;;;;;;;;;;9957214;28;20077;-72
2022/11/12 10:19:13;;;;;;;11.25;10.10;;;;;;;;;;10008457;28;20057;-71
2022/11/12 10:24:35;;;;;;;15.73;9.48;;;;;;;;;;10023340;28;20077;-71
2022/11/12 10:30:03;;;;;;;11.80;10.13;;;;;;;;;;10027480;28;20116;-71
2022/11/12 10:35:19;;;;;;;12.48;9.57;;;;;;;;;;10027503;28;20526;-70
2022/11/12 10:40:39;;;;;;;9.40;7.85;;;;;;;;;;10027609;28;20542;-71
2022/11/12 10:45:51;;;;;;;11.07;9.88;;;;;;;;;;10026862;28;20061;-70
2022/11/12 10:51:43;;;;;;;10.93;9.70;;;;;;;;;;10027623;28;20060;-70
2022/11/12 10:56:55;;;;;;;16.52;13.10;;;;;;;;;;10027435;28;20520;-70
2022/11/12 11:02:16;;;;;;;13.73;12.40;;;;;;;;;;10027608;28;20139;-70
2022/11/12 11:07:29;;;;;;;24.05;12.80;;;;;;;;;;10010327;28;20092;-71
2022/11/12 11:12:41;;;;;;;14.30;12.80;;;;;;;;;;10027169;28;20096;-70
2022/11/12 11:17:52;;;;;;;14.73;13.13;;;;;;;;;;10026462;28;20523;-71
2022/11/12 11:23:20;;;;;;;16.33;12.13;;;;;;;;;;10020334;28;20065;-70
2022/11/12 11:28:57;;;;;;;14.43;13.02;;;;;;;;;;10031228;28;20088;-71
2022/11/12 11:34:24;;;;;;;13.75;12.00;;;;;;;;;;10033504;28;20147;-70
2022/11/12 11:39:51;;;;;;;13.77;11.70;;;;;;;;;;10024969;28;20060;-70
2022/11/12 11:45:11;;;;;;;16.05;12.80;;;;;;;;;;10019741;28;20049;-70
2022/11/12 11:50:44;;;;;;;14.18;12.68;;;;;;;;;;10018683;28;20134;-70
2022/11/12 11:56:28;;;;;;;15.05;12.95;;;;;;;;;;10033288;28;20076;-71
2022/11/12 12:01:54;;;;;;;16.77;14.23;;;;;;;;;;10032436;28;20168;-71
2022/11/12 12:07:18;;;;;;;16.13;14.43;;;;;;;;;;10023568;28;20080;-70
2022/11/12 12:12:33;;;;;;;16.52;13.85;;;;;;;;;;10032921;28;20057;-71
2022/11/12 12:17:47;;;;;;;17.92;14.20;;;;;;;;;;10017491;28;20104;-70
2022/11/12 12:23:02;;;;;;;16.60;14.20;;;;;;;;;;10032482;28;20072;-69
2022/11/12 12:28:39;;;;;;;21.25;14.77;;;;;;;;;;10017074;28;20061;-70
2022/11/12 12:33:57;;;;;;;16.50;14.73;;;;;;;;;;10030575;28;20067;-70
2022/11/12 12:39:26;;;;;;;20.88;14.48;;;;;;;;;;10016426;28;20107;-70
2022/11/12 12:45:06;;;;;;;18.85;15.90;;;;;;;;;;10031289;28;20068;-70
2022/11/12 12:50:19;;;;;;;15.23;12.95;;;;;;;;;;10011766;28;20116;-70
2022/11/12 12:55:38;;;;;;;16.20;14.27;;;;;;;;;;10016300;28;20056;-70
2022/11/12 13:00:53;;;;;;;19.63;15.87;;;;;;;;;;10031757;28;20057;-70
2022/11/12 13:06:28;;;;;;;19.60;17.55;;;;;;;;;;10030917;28;20060;-70
2022/11/12 13:17:14;;;;;;;22.25;18.10;;;;;;;;;;10030079;28;20066;-70
2022/11/12 13:22:45;;;;;;;21.88;16.63;;;;;;;;;;10030676;28;20107;-70
2022/11/12 13:28:06;;;;;;;22.95;17.77;;;;;;;;;;10024703;28;20068;-71
2022/11/12 13:33:25;;;;;;;20.98;17.75;;;;;;;;;;10017882;28;20061;-71
2022/11/12 13:38:36;;;;;;;22.05;16.83;;;;;;;;;;10029719;28;20064;-70
2022/11/12 13:43:49;;;;;;;26.52;17.30;;;;;;;;;;10028790;28;20048;-70
2022/11/12 13:49:08;;;;;;;22.05;18.08;;;;;;;;;;10029527;28;20105;-70
2022/11/12 13:54:31;;;;;;;23.95;18.05;;;;;;;;;;10014121;28;20711;-70
2022/11/12 13:59:44;;;;;;;22.23;18.80;;;;;;;;;;10029952;28;20057;-70
2022/11/12 14:04:57;;;;;;;26.23;19.73;;;;;;;;;;10011867;28;20048;-69
2022/11/12 14:10:37;;;;;;;25.85;18.80;;;;;;;;;;10027852;28;20112;-70
2022/11/12 14:16:14;;;;;;;25.30;19.05;;;;;;;;;;10006081;28;20139;-70
2022/11/12 14:21:25;;;;;;;24.05;18.48;;;;;;;;;;10030160;28;20482;-70
2022/11/12 14:26:41;;;;;;;22.70;17.90;;;;;;;;;;10027601;28;20100;-69
2022/11/12 14:32:01;;;;;;;22.42;18.27;;;;;;;;;;10028073;28;20092;-69
2022/11/12 14:37:46;;;;;;;21.42;18.17;;;;;;;;;;10027882;28;20128;-69
2022/11/12 14:42:58;;;;;;;22.92;18.85;;;;;;;;;;10027965;28;20077;-69
2022/11/12 14:48:12;;;;;;;26.05;20.60;;;;;;;;;;10026494;28;20052;-68
2022/11/12 14:53:29;;;;;;;23.23;20.73;;;;;;;;;;10012019;28;20053;-69
2022/11/12 14:58:41;;;;;;;23.75;19.88;;;;;;;;;;10022508;28;20064;-69
2022/11/12 15:04:04;;;;;;;30.27;23.38;;;;;;;;;;10025748;28;20464;-69
2022/11/12 15:09:31;;;;;;;26.98;20.20;;;;;;;;;;10026767;28;20104;-69
2022/11/12 15:14:43;;;;;;;33.67;22.38;;;;;;;;;;10026575;28;20409;-69
2022/11/12 15:20:04;;;;;;;29.55;23.70;;;;;;;;;;10037587;28;20061;-69
2022/11/12 15:25:22;;;;;;;30.90;23.95;;;;;;;;;;10026361;28;20097;-69
2022/11/12 15:30:35;;;;;;;30.58;23.45;;;;;;;;;;10027379;28;20080;-69
2022/11/12 15:35:57;;;;;;;32.30;25.40;;;;;;;;;;10025834;28;20539;-69
2022/11/12 15:41:25;;;;;;;27.50;23.20;;;;;;;;;;10025031;28;20429;-71
2022/11/12 15:46:37;;;;;;;30.95;21.98;;;;;;;;;;10020796;28;20215;-72
2022/11/12 15:51:49;;;;;;;37.53;23.20;;;;;;;;;;10023740;28;20120;-73
2022/11/12 15:57:01;;;;;;;31.08;22.88;;;;;;;;;;10024014;28;20160;-73
2022/11/12 16:02:13;;;;;;;34.38;25.15;;;;;;;;;;10026013;28;20103;-72
2022/11/12 16:07:25;;;;;;;33.35;25.17;;;;;;;;;;10028312;28;20061;-70
2022/11/12 16:12:38;;;;;;;38.35;30.05;;;;;;;;;;10028959;28;20834;-72
2022/11/12 16:17:52;;;;;;;35.55;26.95;;;;;;;;;;10030383;28;20068;-71
2022/11/12 16:23:03;;;;;;;47.35;34.63;;;;;;;;;;10030639;28;20129;-67
2022/11/12 16:28:16;;;;;;;37.92;29.95;;;;;;;;;;10028464;28;20081;-68
2022/11/12 16:33:28;;;;;;;41.33;33.90;;;;;;;;;;10029311;28;20550;-69
2022/11/12 16:38:40;;;;;;;38.25;27.33;;;;;;;;;;10029551;28;20092;-69
2022/11/12 16:43:52;;;;;;;37.25;27.88;;;;;;;;;;10029152;28;20056;-69
2022/11/12 16:49:04;;;;;;;32.78;27.95;;;;;;;;;;10024997;28;20096;-70
2022/11/12 16:54:17;;;;;;;35.15;26.50;;;;;;;;;;10027807;28;20052;-73
2022/11/12 16:59:31;;;;;;;36.80;26.98;;;;;;;;;;10028950;28;20060;-68
2022/11/12 17:04:43;;;;;;;36.22;28.50;;;;;;;;;;10028890;28;20401;-70
2022/11/12 17:09:55;;;;;;;33.10;26.13;;;;;;;;;;10029174;28;20057;-69
2022/11/12 17:15:09;;;;;;;38.00;26.85;;;;;;;;;;10029976;28;20451;-72
2022/11/12 17:20:22;;;;;;;36.95;25.75;;;;;;;;;;10027360;28;20131;-68
2022/11/12 17:25:34;;;;;;;35.45;27.75;;;;;;;;;;10025877;28;20447;-66
2022/11/12 17:30:46;;;;;;;37.28;29.42;;;;;;;;;;10029157;28;20057;-64
2022/11/12 17:36:05;;;;;;;39.60;30.08;;;;;;;;;;10027450;28;20053;-66
2022/11/12 17:41:17;;;;;;;46.30;37.30;;;;;;;;;;10024106;28;20077;-65
2022/11/12 17:46:31;;;;;;;37.45;29.90;;;;;;;;;;10028664;28;20076;-65
2022/11/12 17:51:45;;;;;;;40.40;29.55;;;;;;;;;;10026873;28;20056;-66
2022/11/12 17:56:58;;;;;;;39.03;30.52;;;;;;;;;;10028037;28;20052;-67
2022/11/12 18:02:11;;;;;;;40.72;33.40;;;;;;;;;;10026215;28;20056;-65
2022/11/12 18:07:24;;;;;;;38.20;30.95;;;;;;;;;;10025524;28;20244;-65
2022/11/12 18:12:36;;;;;;;37.45;28.70;;;;;;;;;;10024642;28;20069;-65
2022/11/12 18:17:47;;;;;;;32.92;27.35;;;;;;;;;;10025780;28;20531;-65
2022/11/12 18:23:00;;;;;;;31.75;25.95;;;;;;;;;;10024632;28;20523;-65
2022/11/12 18:28:11;;;;;;;33.72;27.13;;;;;;;;;;10026459;28;20056;-65
2022/11/12 18:33:24;;;;;;;33.90;25.45;;;;;;;;;;10025056;28;20052;-67
2022/11/12 18:38:37;;;;;;;44.65;25.98;;;;;;;;;;10023877;28;20416;-66
2022/11/12 18:43:49;;;;;;;34.72;26.33;;;;;;;;;;10022742;28;20057;-65
2022/11/12 18:49:02;;;;;;;47.10;37.15;;;;;;;;;;10025888;28;20053;-67
2022/11/12 18:54:15;;;;;;;47.25;36.50;;;;;;;;;;10026416;28;20531;-66
2022/11/12 18:59:29;;;;;;;47.08;37.10;;;;;;;;;;10026931;28;20503;-66
2022/11/12 19:04:41;;;;;;;48.15;37.45;;;;;;;;;;10026378;28;20139;-66
2022/11/12 19:09:56;;;;;;;51.72;39.53;;;;;;;;;;10026166;28;20053;-66
2022/11/12 19:15:08;;;;;;;48.70;34.60;;;;;;;;;;10026120;28;20420;-68
2022/11/12 19:20:20;;;;;;;43.22;36.47;;;;;;;;;;10022172;28;20140;-68
2022/11/12 19:25:34;;;;;;;58.15;44.67;;;;;;;;;;10014637;28;20093;-68
2022/11/12 19:30:46;;;;;;;59.00;49.83;;;;;;;;;;10030748;28;20104;-68
2022/11/12 19:35:58;;;;;;;65.72;50.55;;;;;;;;;;10025979;28;20053;-67
2022/11/12 19:41:17;;;;;;;56.70;44.80;;;;;;;;;;10029546;28;20128;-67
2022/11/12 19:46:31;;;;;;;63.00;46.58;;;;;;;;;;10033093;28;20065;-68
2022/11/12 19:51:42;;;;;;;60.42;50.15;;;;;;;;;;10030019;28;20064;-66
2022/11/12 19:56:55;;;;;;;54.22;45.97;;;;;;;;;;10030644;28;20420;-65
2022/11/12 20:02:10;;;;;;;60.40;49.35;;;;;;;;;;10030742;28;20048;-66
2022/11/12 20:07:23;;;;;;;59.22;49.65;;;;;;;;;;10033634;28;20153;-65
2022/11/12 20:12:38;;;;;;;63.58;50.67;;;;;;;;;;10029894;28;20053;-66
2022/11/12 20:17:50;;;;;;;64.65;51.17;;;;;;;;;;10029799;28;20111;-67
2022/11/12 20:23:03;;;;;;;59.28;48.35;;;;;;;;;;10029198;28;20065;-67
2022/11/12 20:28:16;;;;;;;59.45;45.67;;;;;;;;;;10029964;28;20057;-67
2022/11/12 20:33:28;;;;;;;54.85;43.85;;;;;;;;;;10029523;28;20416;-67
2022/11/12 20:38:42;;;;;;;56.03;43.08;;;;;;;;;;10026074;28;20080;-66
2022/11/12 20:43:56;;;;;;;55.75;44.70;;;;;;;;;;10024651;28;20057;-67
2022/11/12 20:49:08;;;;;;;64.50;51.38;;;;;;;;;;10025777;28;20132;-66
2022/11/12 20:54:21;;;;;;;57.53;46.97;;;;;;;;;;10027879;28;20118;-66
2022/11/12 20:59:32;;;;;;;58.70;46.13;;;;;;;;;;10030118;28;20157;-67
2022/11/12 21:04:46;;;;;;;56.40;44.35;;;;;;;;;;10030226;28;20053;-67
2022/11/12 21:09:59;;;;;;;52.15;40.10;;;;;;;;;;10029775;28;20180;-67
2022/11/12 21:15:11;;;;;;;46.05;37.97;;;;;;;;;;10020607;28;20570;-68
2022/11/12 21:20:23;;;;;;;45.20;35.38;;;;;;;;;;10028003;28;20057;-66
2022/11/12 21:25:36;;;;;;;39.40;34.67;;;;;;;;;;10026824;28;20108;-66
2022/11/12 21:30:47;;;;;;;43.42;34.88;;;;;;;;;;10025636;28;20052;-67
2022/11/12 21:35:59;;;;;;;49.95;39.08;;;;;;;;;;10028736;28;20177;-67
2022/11/12 21:41:36;;;;;;;55.05;45.25;;;;;;;;;;10029316;28;20060;-68
2022/11/12 21:46:48;;;;;;;45.03;36.47;;;;;;;;;;10026621;28;20084;-68
2022/11/12 21:52:00;;;;;;;37.95;33.22;;;;;;;;;;10028961;28;20112;-68
2022/11/12 21:57:12;;;;;;;43.00;33.92;;;;;;;;;;10028972;28;20100;-68
2022/11/12 22:02:29;;;;;;;34.72;30.60;;;;;;;;;;10029719;28;20112;-68
2022/11/12 22:07:40;;;;;;;38.63;29.83;;;;;;;;;;10029657;28;20133;-68
2022/11/12 22:12:53;;;;;;;35.15;28.63;;;;;;;;;;10028403;28;20168;-68
2022/11/12 22:18:24;;;;;;;33.80;26.77;;;;;;;;;;10021362;28;20519;-68
2022/11/12 22:23:37;;;;;;;43.08;34.67;;;;;;;;;;10028761;28;20092;-68
2022/11/12 22:28:49;;;;;;;39.25;31.08;;;;;;;;;;10026759;28;20060;-68
2022/11/12 22:34:02;;;;;;;50.92;37.83;;;;;;;;;;10027659;28;20501;-69
2022/11/12 22:39:14;;;;;;;48.42;36.50;;;;;;;;;;10029394;28;20057;-68
2022/11/12 22:44:27;;;;;;;50.10;38.80;;;;;;;;;;10027356;28;20510;-68
2022/11/12 22:49:40;;;;;;;43.45;33.47;;;;;;;;;;10027205;28;20072;-69
2022/11/12 22:54:52;;;;;;;50.92;30.73;;;;;;;;;;10027244;28;20061;-69
2022/11/12 23:00:10;;;;;;;42.05;31.52;;;;;;;;;;10028203;28;20103;-69
2022/11/12 23:05:22;;;;;;;41.22;31.95;;;;;;;;;;10027854;28;20053;-69
2022/11/12 23:10:34;;;;;;;36.10;30.65;;;;;;;;;;10031155;28;20076;-69
2022/11/12 23:15:45;;;;;;;36.58;30.27;;;;;;;;;;10030220;28;20068;-71
2022/11/12 23:21:11;;;;;;;38.30;29.98;;;;;;;;;;10035202;28;20548;-70
2022/11/12 23:26:25;;;;;;;31.77;27.83;;;;;;;;;;10035272;28;20165;-70
2022/11/12 23:31:37;;;;;;;37.85;28.85;;;;;;;;;;10024191;28;20151;-71
2022/11/12 23:36:48;;;;;;;35.75;28.13;;;;;;;;;;10034281;28;20112;-70
2022/11/12 23:42:00;;;;;;;37.75;28.60;;;;;;;;;;10029521;28;20104;-70
2022/11/12 23:47:12;;;;;;;37.72;28.67;;;;;;;;;;10034183;28;20076;-70
2022/11/12 23:52:24;;;;;;;32.03;27.27;;;;;;;;;;10036831;28;20061;-70
2022/11/12 23:57:37;;;;;;;34.85;28.05;;;;;;;;;;10038821;28;20161;-70
